createdAt,value
2023-03-10T00:01:13.711Z,3.13
2023-03-10T00:03:41.962Z,4.80
2023-03-10T00:06:13.499Z,5.33
2023-03-10T00:08:41.931Z,4.57
2023-03-10T00:11:10.713Z,3.50
2023-03-10T00:13:39.098Z,4.27
2023-03-10T00:16:07.860Z,4.40
2023-03-10T00:18:35.928Z,1.90
2023-03-10T00:21:04.866Z,2.10
2023-03-10T00:23:37.009Z,2.10
2023-03-10T00:26:05.846Z,2.30
2023-03-10T00:28:33.890Z,1.80
2023-03-10T00:31:03.331Z,2.00
2023-03-10T00:33:32.426Z,1.43
2023-03-10T00:36:06.460Z,1.90
2023-03-10T00:38:36.739Z,3.60
2023-03-10T00:41:07.153Z,3.60
2023-03-10T00:43:40.918Z,1.60
2023-03-10T00:46:09.729Z,1.70
2023-03-10T00:48:37.930Z,2.40
2023-03-10T00:51:07.149Z,4.00
2023-03-10T00:53:37.818Z,2.47
2023-03-10T00:56:08.858Z,1.33
2023-03-10T00:58:36.982Z,1.30
2023-03-10T01:01:06.352Z,2.40
2023-03-10T01:03:34.383Z,1.57
2023-03-10T01:06:02.590Z,1.10
2023-03-10T01:08:31.073Z,1.20
2023-03-10T01:11:01.850Z,1.40
2023-03-10T01:13:29.933Z,1.10
2023-03-10T01:15:58.079Z,1.10
2023-03-10T01:18:27.085Z,1.07
2023-03-10T01:20:55.114Z,1.20
2023-03-10T01:23:24.637Z,0.90
2023-03-10T01:25:53.029Z,1.53
2023-03-10T01:28:22.892Z,0.97
2023-03-10T01:30:51.358Z,0.90
2023-03-10T01:33:19.690Z,1.07
2023-03-10T01:35:47.805Z,1.17
2023-03-10T01:38:15.871Z,0.80
2023-03-10T01:40:49.639Z,0.90
2023-03-10T01:43:30.192Z,0.80
2023-03-10T01:46:40.532Z,1.70
2023-03-10T01:49:36.146Z,2.20
2023-03-10T01:52:08.425Z,1.47
2023-03-10T01:54:43.828Z,1.13
2023-03-10T01:57:15.075Z,1.20
2023-03-10T01:59:44.741Z,1.23
2023-03-10T02:02:13.404Z,1.10
2023-03-10T02:04:44.444Z,1.00
2023-03-10T02:07:14.023Z,1.00
2023-03-10T02:09:45.404Z,1.00
2023-03-10T02:12:15.220Z,1.30
2023-03-10T02:14:45.907Z,1.07
2023-03-10T02:17:17.919Z,1.27
2023-03-10T02:20:09.381Z,0.90
2023-03-10T02:22:38.325Z,0.90
2023-03-10T02:25:19.312Z,0.80
2023-03-10T02:27:49.007Z,1.00
2023-03-10T02:30:22.284Z,1.03
2023-03-10T02:32:54.727Z,1.00
2023-03-10T02:35:24.482Z,0.80
2023-03-10T02:37:59.947Z,0.87
2023-03-10T02:40:37.194Z,0.97
2023-03-10T02:43:19.260Z,0.80
2023-03-10T02:45:52.099Z,1.37
2023-03-10T02:48:28.191Z,1.10
2023-03-10T02:50:57.709Z,0.90
2023-03-10T02:53:29.125Z,1.10
2023-03-10T02:55:57.613Z,1.20
2023-03-10T02:58:29.088Z,1.30
2023-03-10T03:00:57.868Z,1.30
2023-03-10T03:03:26.770Z,2.27
2023-03-10T03:05:55.495Z,1.60
2023-03-10T03:08:24.447Z,1.83
2023-03-10T03:10:52.621Z,1.73
2023-03-10T03:13:21.135Z,2.20
2023-03-10T03:15:50.981Z,1.77
2023-03-10T03:18:19.080Z,1.70
2023-03-10T03:20:47.192Z,1.80
2023-03-10T03:23:15.274Z,2.00
2023-03-10T03:25:43.929Z,1.80
2023-03-10T03:28:15.194Z,1.93
2023-03-10T03:30:46.174Z,2.20
2023-03-10T03:33:15.686Z,1.50
2023-03-10T03:35:45.531Z,1.67
2023-03-10T03:38:14.836Z,2.07
2023-03-10T03:40:45.110Z,2.60
2023-03-10T03:43:15.708Z,2.07
2023-03-10T03:45:45.082Z,1.90
2023-03-10T03:48:15.560Z,1.30
2023-03-10T03:50:43.948Z,1.73
2023-03-10T03:53:21.876Z,2.00
2023-03-10T03:55:51.555Z,1.50
2023-03-10T03:58:22.677Z,1.33
2023-03-10T04:00:52.121Z,1.40
2023-03-10T04:03:22.119Z,1.70
2023-03-10T04:05:50.365Z,1.40
2023-03-10T04:08:20.268Z,1.67
2023-03-10T04:10:52.202Z,1.27
2023-03-10T04:13:21.978Z,1.30
2023-03-10T04:15:56.402Z,1.73
2023-03-10T04:18:26.899Z,1.53
2023-03-10T04:20:55.610Z,1.53
2023-03-10T04:23:23.662Z,1.80
2023-03-10T04:25:52.270Z,1.50
2023-03-10T04:28:20.442Z,1.60
2023-03-10T04:30:50.343Z,1.37
2023-03-10T04:33:22.029Z,2.40
2023-03-10T04:35:53.471Z,3.13
2023-03-10T04:38:24.112Z,2.50
2023-03-10T04:40:58.534Z,1.77
2023-03-10T04:43:31.039Z,2.03
2023-03-10T04:45:59.763Z,2.13
2023-03-10T04:48:28.256Z,2.50
2023-03-10T04:50:58.328Z,2.93
2023-03-10T04:53:29.327Z,2.60
2023-03-10T04:55:57.796Z,2.23
2023-03-10T04:58:26.033Z,2.30
2023-03-10T05:01:03.340Z,2.50
2023-03-10T05:03:34.490Z,2.50
2023-03-10T05:06:03.960Z,3.00
2023-03-10T05:08:32.272Z,2.97
2023-03-10T05:11:00.320Z,2.87
2023-03-10T05:13:30.804Z,3.73
2023-03-10T05:16:00.422Z,2.73
2023-03-10T05:18:28.772Z,2.33
2023-03-10T05:20:59.219Z,2.73
2023-03-10T05:23:30.155Z,2.63
2023-03-10T05:25:58.236Z,2.63
2023-03-10T05:28:27.677Z,4.97
2023-03-10T05:30:55.887Z,2.70
2023-03-10T05:33:23.997Z,3.10
2023-03-10T05:35:52.917Z,2.10
2023-03-10T05:38:20.967Z,2.63
2023-03-10T05:40:50.363Z,2.83
2023-03-10T05:43:18.442Z,2.37
2023-03-10T05:45:55.276Z,2.50
2023-03-10T05:48:23.389Z,2.60
2023-03-10T05:51:00.124Z,3.33
2023-03-10T05:53:30.602Z,2.83
2023-03-10T05:56:00.374Z,3.20
2023-03-10T05:58:28.380Z,2.87
2023-03-10T06:00:56.434Z,2.43
2023-03-10T06:03:24.860Z,2.67
2023-03-10T06:05:53.110Z,2.20
2023-03-10T06:08:21.096Z,2.20
2023-03-10T06:10:49.098Z,2.50
2023-03-10T06:13:20.126Z,2.17
2023-03-10T06:15:51.000Z,2.00
2023-03-10T06:18:19.342Z,2.30
2023-03-10T06:20:47.869Z,2.63
2023-03-10T06:23:17.557Z,2.00
2023-03-10T06:25:46.016Z,2.47
2023-03-10T06:28:14.616Z,2.37
2023-03-10T06:30:43.987Z,2.20
2023-03-10T06:33:12.085Z,3.07
2023-03-10T06:35:40.159Z,2.23
2023-03-10T06:38:08.198Z,2.93
2023-03-10T06:40:36.370Z,2.33
2023-03-10T06:43:04.400Z,3.70
2023-03-10T06:45:32.412Z,1.77
2023-03-10T06:48:01.872Z,4.40
2023-03-10T06:50:37.230Z,2.83
2023-03-10T06:53:06.576Z,2.30
2023-03-10T06:55:34.721Z,2.00
2023-03-10T06:58:02.824Z,2.10
2023-03-10T07:00:30.938Z,1.63
2023-03-10T07:02:59.019Z,1.57
2023-03-10T07:05:28.601Z,1.50
2023-03-10T07:07:56.848Z,1.50
2023-03-10T07:10:25.306Z,1.37
2023-03-10T07:12:58.830Z,1.43
2023-03-10T07:15:27.449Z,1.53
2023-03-10T07:17:56.328Z,1.50
2023-03-10T07:20:25.028Z,1.70
2023-03-10T07:22:54.431Z,2.30
2023-03-10T07:25:22.494Z,1.70
2023-03-10T07:27:50.534Z,1.10
2023-03-10T07:30:19.099Z,1.77
2023-03-10T07:32:47.264Z,1.80
2023-03-10T07:35:15.329Z,2.20
2023-03-10T07:37:43.414Z,2.30
2023-03-10T07:40:13.635Z,2.57
2023-03-10T07:42:43.328Z,2.60
2023-03-10T07:45:12.498Z,2.10
2023-03-10T07:47:40.634Z,2.47
2023-03-10T07:50:09.605Z,2.60
2023-03-10T07:52:37.709Z,2.17
2023-03-10T07:55:06.421Z,2.80
2023-03-10T07:57:35.822Z,2.50
2023-03-10T08:00:04.818Z,2.50
2023-03-10T08:02:40.932Z,1.83
2023-03-10T08:05:10.895Z,2.03
2023-03-10T08:07:39.594Z,2.50
2023-03-10T08:10:08.519Z,2.20
2023-03-10T08:12:38.151Z,2.60
2023-03-10T08:15:07.520Z,2.87
2023-03-10T08:17:35.606Z,2.50
2023-03-10T08:20:06.569Z,2.90
2023-03-10T08:22:34.820Z,3.10
2023-03-10T08:25:02.984Z,2.57
2023-03-10T08:27:31.166Z,2.80
2023-03-10T08:30:00.594Z,2.20
2023-03-10T08:32:28.851Z,2.30
2023-03-10T08:34:56.993Z,2.77
2023-03-10T08:37:25.123Z,3.07
2023-03-10T08:39:54.301Z,3.43
2023-03-10T08:42:22.363Z,4.80
2023-03-10T08:44:50.465Z,2.50
2023-03-10T08:47:19.894Z,3.37
2023-03-10T08:49:48.991Z,2.60
2023-03-10T08:52:17.676Z,2.33
2023-03-10T08:54:45.845Z,2.40
2023-03-10T08:57:13.866Z,2.57
2023-03-10T08:59:41.958Z,2.50
2023-03-10T09:02:13.621Z,2.43
2023-03-10T09:04:43.545Z,2.47
2023-03-10T09:07:11.577Z,2.27
2023-03-10T09:09:39.653Z,2.40
2023-03-10T09:12:08.936Z,2.40
2023-03-10T09:14:37.635Z,2.17
2023-03-10T09:17:06.362Z,2.40
2023-03-10T09:19:34.560Z,2.47
2023-03-10T09:22:03.924Z,1.80
2023-03-10T09:24:32.154Z,1.90
2023-03-10T09:27:00.237Z,2.70
2023-03-10T09:29:42.000Z,1.70
2023-03-10T09:32:11.621Z,1.90
2023-03-10T09:34:39.831Z,1.90
2023-03-10T09:37:09.236Z,1.83
2023-03-10T09:39:37.549Z,1.73
2023-03-10T09:42:37.333Z,2.53
2023-03-10T09:45:24.140Z,2.30
2023-03-10T09:48:05.029Z,2.77
2023-03-10T09:50:35.729Z,1.77
2023-03-10T09:53:16.205Z,1.97
2023-03-10T09:55:48.600Z,1.67
2023-03-10T09:58:28.081Z,1.70
2023-03-10T10:00:56.153Z,1.47
2023-03-10T10:03:28.281Z,2.30
2023-03-10T10:05:57.711Z,2.43
2023-03-10T10:08:29.465Z,1.80
2023-03-10T10:10:59.423Z,1.90
2023-03-10T10:13:30.702Z,1.53
2023-03-10T10:16:24.716Z,1.53
2023-03-10T10:19:02.319Z,1.40
2023-03-10T10:21:42.653Z,1.20
2023-03-10T10:24:12.632Z,2.00
2023-03-10T10:26:40.801Z,1.40
2023-03-10T10:29:17.718Z,1.67
2023-03-10T10:32:04.186Z,1.30
2023-03-10T10:34:32.560Z,1.60
2023-03-10T10:37:01.670Z,1.47
2023-03-10T10:39:34.588Z,2.33
2023-03-10T10:42:20.179Z,1.60
2023-03-10T10:44:48.765Z,1.87
2023-03-10T10:47:27.462Z,1.60
2023-03-10T10:49:56.635Z,1.70
2023-03-10T10:52:26.639Z,2.47
2023-03-10T10:54:59.113Z,1.30
2023-03-10T10:57:34.006Z,1.80
2023-03-10T11:00:25.206Z,1.10
2023-03-10T11:02:54.077Z,2.33
2023-03-10T11:05:24.496Z,2.13
2023-03-10T11:07:53.594Z,1.93
2023-03-10T11:10:32.832Z,1.30
2023-03-10T11:13:07.467Z,1.87
2023-03-10T11:15:38.591Z,1.87
2023-03-10T11:18:15.751Z,1.40
2023-03-10T11:20:49.690Z,1.20
2023-03-10T11:23:24.408Z,1.17
2023-03-10T11:26:01.402Z,1.10
2023-03-10T11:28:43.801Z,1.10
2023-03-10T11:31:25.280Z,1.00
2023-03-10T11:34:02.658Z,1.20
2023-03-10T11:36:49.685Z,1.20
2023-03-10T11:39:30.315Z,1.13
2023-03-10T11:42:06.430Z,1.30
2023-03-10T11:44:40.034Z,1.30
2023-03-10T11:47:18.240Z,1.53
2023-03-10T11:49:51.625Z,1.13
2023-03-10T11:52:23.380Z,1.43
2023-03-10T11:54:55.883Z,1.50
2023-03-10T11:57:28.990Z,1.23
2023-03-10T12:00:00.388Z,1.83
2023-03-10T12:02:32.174Z,1.87
2023-03-10T12:05:06.798Z,2.43
2023-03-10T12:07:38.790Z,2.13
2023-03-10T12:10:16.380Z,2.00
2023-03-10T12:12:47.509Z,1.30
2023-03-10T12:15:20.187Z,1.80
2023-03-10T12:17:49.839Z,1.27
2023-03-10T12:20:28.071Z,1.87
2023-03-10T12:22:57.679Z,1.50
2023-03-10T12:25:52.626Z,1.10
2023-03-10T12:28:29.400Z,1.40
2023-03-10T12:30:58.885Z,1.10
2023-03-10T12:33:42.361Z,1.40
2023-03-10T12:36:13.170Z,1.37
2023-03-10T12:38:47.158Z,0.97
2023-03-10T12:41:35.910Z,1.43
2023-03-10T12:44:09.456Z,1.50
2023-03-10T12:46:43.065Z,1.10
2023-03-10T12:49:30.401Z,1.20
2023-03-10T12:52:15.918Z,1.40
2023-03-10T12:54:52.506Z,1.40
2023-03-10T12:57:25.998Z,1.50
2023-03-10T13:00:02.552Z,1.10
2023-03-10T13:02:37.392Z,1.20
2023-03-10T13:05:08.099Z,1.67
2023-03-10T13:07:36.847Z,1.30
2023-03-10T13:10:06.282Z,1.50
2023-03-10T13:12:43.657Z,1.40
2023-03-10T13:15:24.786Z,1.97
2023-03-10T13:17:55.217Z,1.37
2023-03-10T13:20:24.446Z,2.10
2023-03-10T13:22:57.540Z,1.37
2023-03-10T13:25:26.913Z,1.70
2023-03-10T13:27:57.370Z,1.70
2023-03-10T13:30:28.432Z,1.67
2023-03-10T13:32:58.346Z,1.50
2023-03-10T13:35:31.074Z,1.77
2023-03-10T13:38:13.332Z,2.60
2023-03-10T13:40:43.836Z,2.00
2023-03-10T13:43:28.613Z,2.17
2023-03-10T13:45:59.946Z,2.50
2023-03-10T13:48:29.937Z,1.40
2023-03-10T13:51:19.281Z,1.60
2023-03-10T13:53:48.507Z,1.60
2023-03-10T13:56:19.614Z,1.90
2023-03-10T13:58:49.670Z,1.70
2023-03-10T14:01:24.752Z,1.50
2023-03-10T14:03:55.420Z,1.77
2023-03-10T14:06:23.910Z,1.90
2023-03-10T14:08:52.639Z,1.30
2023-03-10T14:11:35.692Z,1.70
2023-03-10T14:14:07.941Z,1.20
2023-03-10T14:16:53.177Z,1.30
2023-03-10T14:19:50.917Z,0.90
2023-03-10T14:22:30.190Z,1.10
2023-03-10T14:24:59.428Z,1.10
2023-03-10T14:27:28.453Z,0.80
2023-03-10T14:29:58.405Z,1.00
2023-03-10T14:32:29.514Z,0.77
2023-03-10T14:34:57.708Z,0.83
2023-03-10T14:37:25.696Z,0.80
2023-03-10T14:39:53.746Z,0.80
2023-03-10T14:42:26.152Z,0.90
2023-03-10T14:44:54.534Z,0.90
2023-03-10T14:47:22.759Z,1.20
2023-03-10T14:49:52.198Z,0.97
2023-03-10T14:52:20.392Z,0.80
2023-03-10T14:54:48.533Z,0.90
2023-03-10T14:57:20.987Z,0.80
2023-03-10T14:59:49.753Z,1.00
2023-03-10T15:02:21.805Z,0.80
2023-03-10T15:04:50.184Z,1.00
2023-03-10T15:07:19.618Z,1.00
2023-03-10T15:09:49.547Z,1.07
2023-03-10T15:12:20.793Z,1.20
2023-03-10T15:14:53.561Z,1.20
2023-03-10T15:17:22.178Z,1.20
2023-03-10T15:19:50.327Z,1.60
2023-03-10T15:22:19.742Z,1.20
2023-03-10T15:24:47.842Z,1.20
2023-03-10T15:27:16.022Z,1.30
2023-03-10T15:29:44.112Z,1.23
2023-03-10T15:32:12.197Z,1.20
2023-03-10T15:34:40.232Z,1.13
2023-03-10T15:37:08.667Z,1.20
2023-03-10T15:39:38.150Z,1.40
2023-03-10T15:42:06.478Z,1.17
2023-03-10T15:44:34.766Z,1.43
2023-03-10T15:47:02.902Z,1.20
2023-03-10T15:49:31.054Z,1.30
2023-03-10T15:51:59.257Z,1.70
2023-03-10T15:54:27.469Z,1.10
2023-03-10T15:56:57.093Z,1.33
2023-03-10T15:59:25.242Z,1.40
2023-03-10T16:01:53.583Z,1.20
2023-03-10T16:04:23.614Z,1.60
2023-03-10T16:06:51.880Z,1.30
2023-03-10T16:09:20.019Z,1.07
2023-03-10T16:11:49.036Z,1.23
2023-03-10T16:14:18.476Z,1.17
2023-03-10T16:16:46.493Z,1.23
2023-03-10T16:19:14.651Z,1.30
2023-03-10T16:21:42.707Z,1.67
2023-03-10T16:24:10.976Z,1.20
2023-03-10T16:26:40.365Z,1.03
2023-03-10T16:29:08.527Z,1.30
2023-03-10T16:31:39.060Z,1.50
2023-03-10T16:34:07.612Z,1.10
2023-03-10T16:36:36.845Z,1.30
2023-03-10T16:39:09.010Z,1.10
2023-03-10T16:41:37.276Z,0.90
2023-03-10T16:44:06.290Z,0.80
2023-03-10T16:46:34.894Z,0.60
2023-03-10T16:49:04.404Z,0.80
2023-03-10T16:51:35.444Z,0.70
2023-03-10T16:54:05.392Z,0.80
2023-03-10T16:56:36.291Z,0.80
2023-03-10T16:59:04.563Z,0.70
2023-03-10T17:01:32.974Z,0.80
2023-03-10T17:04:01.165Z,0.80
2023-03-10T17:06:32.782Z,1.00
2023-03-10T17:09:02.250Z,0.90
2023-03-10T17:11:32.510Z,1.17
2023-03-10T17:14:02.406Z,1.10
2023-03-10T17:16:32.241Z,1.40
2023-03-10T17:19:01.813Z,1.30
2023-03-10T17:21:35.625Z,1.30
2023-03-10T17:24:04.837Z,1.60
2023-03-10T17:26:33.344Z,1.73
2023-03-10T17:29:01.438Z,1.83
2023-03-10T17:31:30.766Z,2.20
2023-03-10T17:34:01.300Z,2.30
2023-03-10T17:36:31.389Z,2.33
2023-03-10T17:39:01.222Z,2.20
2023-03-10T17:41:31.029Z,2.67
2023-03-10T17:43:59.405Z,2.23
2023-03-10T17:46:29.248Z,2.50
2023-03-10T17:48:57.769Z,2.23
2023-03-10T17:51:27.303Z,2.20
2023-03-10T17:53:58.847Z,1.60
2023-03-10T17:56:27.594Z,2.30
2023-03-10T17:58:56.296Z,2.40
2023-03-10T18:01:27.373Z,2.10
2023-03-10T18:03:56.015Z,2.47
2023-03-10T18:06:25.878Z,2.20
2023-03-10T18:08:56.224Z,2.03
2023-03-10T18:11:26.773Z,2.50
2023-03-10T18:13:55.313Z,2.47
2023-03-10T18:16:25.708Z,2.50
2023-03-10T18:18:54.017Z,3.30
2023-03-10T18:21:22.970Z,2.70
2023-03-10T18:23:51.607Z,2.37
2023-03-10T18:26:22.256Z,2.20
2023-03-10T18:28:51.778Z,2.47
2023-03-10T18:31:21.876Z,2.10
2023-03-10T18:33:50.575Z,2.33
2023-03-10T18:36:20.486Z,2.20
2023-03-10T18:38:49.381Z,2.93
2023-03-10T18:41:24.428Z,2.20
2023-03-10T18:43:54.273Z,2.37
2023-03-10T18:46:23.222Z,2.00
2023-03-10T18:48:55.423Z,3.10
2023-03-10T18:51:24.445Z,2.60
2023-03-10T18:53:52.564Z,2.20
2023-03-10T18:56:20.692Z,2.57
2023-03-10T18:58:48.801Z,2.43
2023-03-10T19:01:18.267Z,2.47
2023-03-10T19:03:46.327Z,3.00
2023-03-10T19:06:14.356Z,3.10
2023-03-10T19:08:42.524Z,3.10
2023-03-10T19:11:10.770Z,3.50
2023-03-10T19:13:40.403Z,3.53
2023-03-10T19:16:09.666Z,3.03
2023-03-10T19:18:39.740Z,3.43
2023-03-10T19:21:09.406Z,3.23
2023-03-10T19:23:38.024Z,2.97
2023-03-10T19:26:06.930Z,3.20
2023-03-10T19:28:35.016Z,2.80
2023-03-10T19:31:08.441Z,2.70
2023-03-10T19:33:39.736Z,2.33
2023-03-10T19:36:11.769Z,2.30
2023-03-10T19:38:41.308Z,2.53
2023-03-10T19:41:13.500Z,1.97
2023-03-10T19:43:41.637Z,2.00
2023-03-10T19:46:12.449Z,1.70
2023-03-10T19:48:42.730Z,1.80
2023-03-10T19:51:18.988Z,2.20
2023-03-10T19:53:47.101Z,2.40
2023-03-10T19:56:17.993Z,2.30
2023-03-10T19:58:48.094Z,2.10
2023-03-10T20:01:17.145Z,2.13
2023-03-10T20:03:46.675Z,1.87
2023-03-10T20:06:14.844Z,2.20
2023-03-10T20:08:42.843Z,2.97
2023-03-10T20:11:13.524Z,2.80
2023-03-10T20:13:42.879Z,1.60
2023-03-10T20:16:12.810Z,1.90
2023-03-10T20:18:40.877Z,1.87
2023-03-10T20:21:10.395Z,2.60
2023-03-10T20:23:38.459Z,1.97
2023-03-10T20:26:08.793Z,2.37
2023-03-10T20:28:39.558Z,1.63
2023-03-10T20:31:08.063Z,2.40
2023-03-10T20:33:37.161Z,2.67
2023-03-10T20:36:08.500Z,3.07
2023-03-10T20:38:37.977Z,2.80
2023-03-10T20:41:06.223Z,2.97
2023-03-10T20:43:34.387Z,3.57
2023-03-10T20:46:02.524Z,4.10
2023-03-10T20:48:30.589Z,5.03
2023-03-10T20:50:59.020Z,4.07
2023-03-10T20:53:27.075Z,4.00
2023-03-10T20:55:56.478Z,4.23
2023-03-10T20:58:24.574Z,4.10
2023-03-10T21:00:52.644Z,3.87
2023-03-10T21:03:21.555Z,4.20
2023-03-10T21:05:49.712Z,4.27
2023-03-10T21:08:17.893Z,4.27
2023-03-10T21:10:47.710Z,4.10
2023-03-10T21:13:19.449Z,4.70
2023-03-10T21:15:47.528Z,3.33
2023-03-10T21:18:15.562Z,3.20
2023-03-10T21:20:43.564Z,3.43
2023-03-10T21:23:11.650Z,2.97
2023-03-10T21:25:41.484Z,3.07
2023-03-10T21:28:09.827Z,2.80
2023-03-10T21:30:39.473Z,3.10
2023-03-10T21:33:07.925Z,2.43
2023-03-10T21:35:38.525Z,3.00
2023-03-10T21:38:06.663Z,2.17
2023-03-10T21:40:34.729Z,1.97
2023-03-10T21:43:03.042Z,2.17
2023-03-10T21:45:33.443Z,2.00
2023-03-10T21:48:04.026Z,2.00
2023-03-10T21:50:32.590Z,2.10
2023-03-10T21:53:00.755Z,2.40
2023-03-10T21:55:29.571Z,2.23
2023-03-10T21:57:57.591Z,1.83
2023-03-10T22:00:25.826Z,2.40
2023-03-10T22:02:54.051Z,1.80
2023-03-10T22:05:23.651Z,1.90
2023-03-10T22:07:51.789Z,1.67
2023-03-10T22:10:20.912Z,1.97
2023-03-10T22:12:49.249Z,1.70
2023-03-10T22:15:20.508Z,2.47
2023-03-10T22:17:49.135Z,2.43
2023-03-10T22:20:20.533Z,1.60
2023-03-10T22:22:50.070Z,2.60
2023-03-10T22:25:18.807Z,1.70
2023-03-10T22:27:50.749Z,2.20
2023-03-10T22:30:19.309Z,1.73
2023-03-10T22:32:47.647Z,2.33
2023-03-10T22:35:15.720Z,2.70
2023-03-10T22:37:43.946Z,2.10
2023-03-10T22:40:17.295Z,2.10
2023-03-10T22:42:45.989Z,1.70
2023-03-10T22:45:19.135Z,2.40
2023-03-10T22:47:48.277Z,2.20
2023-03-10T22:50:18.493Z,2.77
2023-03-10T22:52:46.866Z,2.00
2023-03-10T22:55:19.899Z,1.90
2023-03-10T22:57:48.016Z,1.63
2023-03-10T23:00:19.675Z,2.47
2023-03-10T23:02:48.694Z,1.60
2023-03-10T23:05:17.395Z,1.77
2023-03-10T23:07:45.816Z,2.50
2023-03-10T23:10:20.804Z,2.03
2023-03-10T23:12:49.215Z,1.50
2023-03-10T23:15:25.146Z,2.90
2023-03-10T23:17:54.263Z,2.47
2023-03-10T23:20:24.311Z,2.20
2023-03-10T23:22:52.544Z,2.00
2023-03-10T23:25:24.621Z,2.03
2023-03-10T23:27:53.302Z,2.47
2023-03-10T23:30:21.770Z,1.97
2023-03-10T23:32:51.493Z,2.20
2023-03-10T23:35:22.418Z,3.30
2023-03-10T23:37:51.286Z,2.90
2023-03-10T23:40:23.680Z,1.73
2023-03-10T23:42:51.774Z,1.80
2023-03-10T23:45:22.271Z,1.80
2023-03-10T23:47:51.499Z,2.23
2023-03-10T23:50:21.760Z,2.47
2023-03-10T23:52:50.891Z,1.73
2023-03-10T23:55:21.358Z,3.00
2023-03-10T23:57:50.843Z,1.80
